sensor_id;sensor_type;location;lat;lon;timestamp;P1;durP1;ratioP1;P2;durP2;ratioP2
32501;SDS011;18952;52.516;13.460;2022-10-17T00:00:15;14.20;;;9.82;;
32501;SDS011;18952;52.516;13.460;2022-10-17T00:02:42;15.77;;;10.38;;
32501;SDS011;18952;52.516;13.460;2022-10-17T00:05:09;12.35;;;8.85;;
32501;SDS011;18952;52.516;13.460;2022-10-17T00:07:35;14.25;;;8.73;;
32501;SDS011;18952;52.516;13.460;2022-10-17T00:10:03;11.95;;;8.60;;
32501;SDS011;18952;52.516;13.460;2022-10-17T00:12:33;10.95;;;8.38;;
32501;SDS011;18952;52.516;13.460;2022-10-17T00:15:01;13.75;;;8.43;;
32501;SDS011;18952;52.516;13.460;2022-10-17T00:17:32;10.55;;;7.93;;
32501;SDS011;18952;52.516;13.460;2022-10-17T00:19:59;13.07;;;8.50;;
32501;SDS011;18952;52.516;13.460;2022-10-17T00:22:26;10.95;;;7.78;;
32501;SDS011;18952;52.516;13.460;2022-10-17T00:24:53;11.73;;;7.80;;
32501;SDS011;18952;52.516;13.460;2022-10-17T00:27:20;13.13;;;7.88;;
32501;SDS011;18952;52.516;13.460;2022-10-17T00:29:50;12.85;;;7.65;;
32501;SDS011;18952;52.516;13.460;2022-10-17T00:32:17;12.30;;;7.78;;
32501;SDS011;18952;52.516;13.460;2022-10-17T00:34:45;10.07;;;7.40;;
32501;SDS011;18952;52.516;13.460;2022-10-17T00:37:13;9.95;;;7.47;;
32501;SDS011;18952;52.516;13.460;2022-10-17T00:39:41;12.20;;;6.93;;
32501;SDS011;18952;52.516;13.460;2022-10-17T00:42:10;12.63;;;7.03;;
32501;SDS011;18952;52.516;13.460;2022-10-17T00:47:08;10.07;;;6.70;;
32501;SDS011;18952;52.516;13.460;2022-10-17T00:49:39;9.57;;;6.50;;
32501;SDS011;18952;52.516;13.460;2022-10-17T00:52:17;8.73;;;6.70;;
32501;SDS011;18952;52.516;13.460;2022-10-17T00:54:51;8.65;;;6.30;;
32501;SDS011;18952;52.516;13.460;2022-10-17T00:57:22;6.75;;;6.05;;
32501;SDS011;18952;52.516;13.460;2022-10-17T00:59:50;8.52;;;6.38;;
32501;SDS011;18952;52.516;13.460;2022-10-17T01:02:20;9.27;;;6.30;;
32501;SDS011;18952;52.516;13.460;2022-10-17T01:04:49;12.23;;;6.70;;
32501;SDS011;18952;52.516;13.460;2022-10-17T01:07:17;10.77;;;6.22;;
32501;SDS011;18952;52.516;13.460;2022-10-17T01:09:44;9.07;;;6.32;;
32501;SDS011;18952;52.516;13.460;2022-10-17T01:12:25;8.85;;;6.13;;
32501;SDS011;18952;52.516;13.460;2022-10-17T01:28:43;7.88;;;5.63;;
32501;SDS011;18952;52.516;13.460;2022-10-17T01:31:22;8.73;;;6.03;;
32501;SDS011;18952;52.516;13.460;2022-10-17T01:39:41;7.27;;;5.40;;
32501;SDS011;18952;52.516;13.460;2022-10-17T01:42:18;6.43;;;5.40;;
32501;SDS011;18952;52.516;13.460;2022-10-17T01:44:58;5.88;;;5.10;;
32501;SDS011;18952;52.516;13.460;2022-10-17T01:47:31;6.25;;;5.20;;
32501;SDS011;18952;52.516;13.460;2022-10-17T01:50:02;6.18;;;4.95;;
32501;SDS011;18952;52.516;13.460;2022-10-17T01:52:38;6.40;;;5.37;;
32501;SDS011;18952;52.516;13.460;2022-10-17T01:55:13;6.05;;;5.20;;
32501;SDS011;18952;52.516;13.460;2022-10-17T01:57:50;7.43;;;5.45;;
32501;SDS011;18952;52.516;13.460;2022-10-17T02:00:30;7.15;;;5.82;;
32501;SDS011;18952;52.516;13.460;2022-10-17T02:03:02;7.57;;;5.13;;
32501;SDS011;18952;52.516;13.460;2022-10-17T02:05:36;8.55;;;5.30;;
32501;SDS011;18952;52.516;13.460;2022-10-17T02:08:06;6.85;;;5.00;;
32501;SDS011;18952;52.516;13.460;2022-10-17T02:13:26;8.65;;;6.10;;
32501;SDS011;18952;52.516;13.460;2022-10-17T02:19:11;7.45;;;6.35;;
32501;SDS011;18952;52.516;13.460;2022-10-17T02:24:58;8.20;;;5.90;;
32501;SDS011;18952;52.516;13.460;2022-10-17T02:30:40;7.63;;;5.68;;
32501;SDS011;18952;52.516;13.460;2022-10-17T02:33:17;11.80;;;5.70;;
32501;SDS011;18952;52.516;13.460;2022-10-17T02:35:56;6.50;;;5.68;;
32501;SDS011;18952;52.516;13.460;2022-10-17T02:38:27;6.78;;;5.55;;
32501;SDS011;18952;52.516;13.460;2022-10-17T02:40:55;6.07;;;5.30;;
32501;SDS011;18952;52.516;13.460;2022-10-17T02:43:22;7.65;;;5.30;;
32501;SDS011;18952;52.516;13.460;2022-10-17T02:45:51;5.90;;;5.28;;
32501;SDS011;18952;52.516;13.460;2022-10-17T02:48:31;6.28;;;5.30;;
32501;SDS011;18952;52.516;13.460;2022-10-17T02:51:08;7.03;;;5.32;;
32501;SDS011;18952;52.516;13.460;2022-10-17T02:56:48;7.80;;;5.05;;
32501;SDS011;18952;52.516;13.460;2022-10-17T02:59:19;7.93;;;5.65;;
32501;SDS011;18952;52.516;13.460;2022-10-17T03:01:50;7.38;;;5.30;;
32501;SDS011;18952;52.516;13.460;2022-10-17T03:04:18;9.30;;;5.38;;
32501;SDS011;18952;52.516;13.460;2022-10-17T03:06:45;7.45;;;5.90;;
32501;SDS011;18952;52.516;13.460;2022-10-17T03:09:13;11.13;;;5.72;;
32501;SDS011;18952;52.516;13.460;2022-10-17T03:11:40;6.72;;;5.57;;
32501;SDS011;18952;52.516;13.460;2022-10-17T03:14:07;9.10;;;6.30;;
32501;SDS011;18952;52.516;13.460;2022-10-17T03:16:34;7.70;;;5.30;;
32501;SDS011;18952;52.516;13.460;2022-10-17T03:19:00;7.80;;;5.40;;
32501;SDS011;18952;52.516;13.460;2022-10-17T03:21:27;9.40;;;6.00;;
32501;SDS011;18952;52.516;13.460;2022-10-17T03:23:54;8.90;;;5.97;;
32501;SDS011;18952;52.516;13.460;2022-10-17T03:26:21;8.30;;;6.00;;
32501;SDS011;18952;52.516;13.460;2022-10-17T03:28:48;10.45;;;6.47;;
32501;SDS011;18952;52.516;13.460;2022-10-17T03:31:19;9.80;;;6.03;;
32501;SDS011;18952;52.516;13.460;2022-10-17T03:33:46;8.63;;;6.40;;
32501;SDS011;18952;52.516;13.460;2022-10-17T03:36:14;6.07;;;5.50;;
32501;SDS011;18952;52.516;13.460;2022-10-17T03:38:42;6.75;;;5.88;;
32501;SDS011;18952;52.516;13.460;2022-10-17T03:41:09;6.50;;;5.93;;
32501;SDS011;18952;52.516;13.460;2022-10-17T03:43:37;8.00;;;5.95;;
32501;SDS011;18952;52.516;13.460;2022-10-17T03:46:04;8.98;;;5.97;;
32501;SDS011;18952;52.516;13.460;2022-10-17T03:48:32;8.32;;;6.13;;
32501;SDS011;18952;52.516;13.460;2022-10-17T03:50:59;8.55;;;6.03;;
32501;SDS011;18952;52.516;13.460;2022-10-17T03:53:27;6.90;;;6.20;;
32501;SDS011;18952;52.516;13.460;2022-10-17T03:55:54;8.40;;;5.88;;
32501;SDS011;18952;52.516;13.460;2022-10-17T03:58:22;7.90;;;6.60;;
32501;SDS011;18952;52.516;13.460;2022-10-17T04:00:48;10.30;;;6.40;;
32501;SDS011;18952;52.516;13.460;2022-10-17T04:03:15;6.47;;;5.88;;
32501;SDS011;18952;52.516;13.460;2022-10-17T04:05:42;8.27;;;6.40;;
32501;SDS011;18952;52.516;13.460;2022-10-17T04:08:10;7.60;;;6.75;;
32501;SDS011;18952;52.516;13.460;2022-10-17T04:10:36;8.45;;;6.32;;
32501;SDS011;18952;52.516;13.460;2022-10-17T04:13:03;9.48;;;7.05;;
32501;SDS011;18952;52.516;13.460;2022-10-17T04:15:29;11.15;;;7.28;;
32501;SDS011;18952;52.516;13.460;2022-10-17T04:17:57;9.20;;;7.22;;
32501;SDS011;18952;52.516;13.460;2022-10-17T04:20:24;8.38;;;7.13;;
32501;SDS011;18952;52.516;13.460;2022-10-17T04:22:52;11.98;;;7.20;;
32501;SDS011;18952;52.516;13.460;2022-10-17T04:25:19;8.23;;;7.43;;
32501;SDS011;18952;52.516;13.460;2022-10-17T04:27:47;9.35;;;7.35;;
32501;SDS011;18952;52.516;13.460;2022-10-17T04:30:15;13.35;;;7.40;;
32501;SDS011;18952;52.516;13.460;2022-10-17T04:32:45;9.18;;;7.20;;
32501;SDS011;18952;52.516;13.460;2022-10-17T04:35:11;10.65;;;8.00;;
32501;SDS011;18952;52.516;13.460;2022-10-17T04:37:38;10.88;;;7.40;;
32501;SDS011;18952;52.516;13.460;2022-10-17T04:40:05;9.85;;;7.47;;
32501;SDS011;18952;52.516;13.460;2022-10-17T04:42:32;10.02;;;7.60;;
32501;SDS011;18952;52.516;13.460;2022-10-17T04:44:59;11.32;;;7.90;;
32501;SDS011;18952;52.516;13.460;2022-10-17T04:47:25;12.68;;;7.68;;
32501;SDS011;18952;52.516;13.460;2022-10-17T04:49:52;11.70;;;9.02;;
32501;SDS011;18952;52.516;13.460;2022-10-17T04:52:19;17.50;;;8.70;;
32501;SDS011;18952;52.516;13.460;2022-10-17T04:54:45;10.50;;;8.00;;
32501;SDS011;18952;52.516;13.460;2022-10-17T04:57:12;11.85;;;8.90;;
32501;SDS011;18952;52.516;13.460;2022-10-17T04:59:39;11.13;;;8.43;;
32501;SDS011;18952;52.516;13.460;2022-10-17T05:02:06;10.60;;;8.07;;
32501;SDS011;18952;52.516;13.460;2022-10-17T05:04:33;11.15;;;8.50;;
32501;SDS011;18952;52.516;13.460;2022-10-17T05:07:00;9.50;;;8.60;;
32501;SDS011;18952;52.516;13.460;2022-10-17T05:09:26;10.80;;;8.68;;
32501;SDS011;18952;52.516;13.460;2022-10-17T05:11:53;12.30;;;9.13;;
32501;SDS011;18952;52.516;13.460;2022-10-17T05:14:20;14.13;;;8.93;;
32501;SDS011;18952;52.516;13.460;2022-10-17T05:16:46;11.73;;;9.45;;
32501;SDS011;18952;52.516;13.460;2022-10-17T05:19:13;12.02;;;9.23;;
32501;SDS011;18952;52.516;13.460;2022-10-17T05:21:41;13.43;;;9.23;;
32501;SDS011;18952;52.516;13.460;2022-10-17T05:24:12;11.45;;;9.90;;
32501;SDS011;18952;52.516;13.460;2022-10-17T05:26:39;15.10;;;10.95;;
32501;SDS011;18952;52.516;13.460;2022-10-17T05:29:07;11.57;;;9.52;;
32501;SDS011;18952;52.516;13.460;2022-10-17T05:31:34;10.65;;;9.50;;
32501;SDS011;18952;52.516;13.460;2022-10-17T05:34:01;12.98;;;10.35;;
32501;SDS011;18952;52.516;13.460;2022-10-17T05:36:28;10.80;;;9.70;;
32501;SDS011;18952;52.516;13.460;2022-10-17T05:38:55;17.85;;;10.00;;
32501;SDS011;18952;52.516;13.460;2022-10-17T05:41:24;17.00;;;9.13;;
32501;SDS011;18952;52.516;13.460;2022-10-17T05:43:53;18.08;;;9.77;;
32501;SDS011;18952;52.516;13.460;2022-10-17T05:46:20;13.07;;;11.07;;
32501;SDS011;18952;52.516;13.460;2022-10-17T05:48:46;17.73;;;10.95;;
32501;SDS011;18952;52.516;13.460;2022-10-17T05:51:13;15.23;;;10.38;;
32501;SDS011;18952;52.516;13.460;2022-10-17T05:53:40;32.25;;;25.02;;
32501;SDS011;18952;52.516;13.460;2022-10-17T05:56:08;15.90;;;11.15;;
32501;SDS011;18952;52.516;13.460;2022-10-17T05:58:43;12.85;;;10.68;;
32501;SDS011;18952;52.516;13.460;2022-10-17T06:01:16;15.75;;;10.77;;
32501;SDS011;18952;52.516;13.460;2022-10-17T06:03:43;16.75;;;11.27;;
32501;SDS011;18952;52.516;13.460;2022-10-17T06:06:11;15.25;;;10.88;;
32501;SDS011;18952;52.516;13.460;2022-10-17T06:08:39;16.02;;;11.85;;
32501;SDS011;18952;52.516;13.460;2022-10-17T06:11:06;14.35;;;12.32;;
32501;SDS011;18952;52.516;13.460;2022-10-17T06:13:36;16.48;;;11.77;;
32501;SDS011;18952;52.516;13.460;2022-10-17T06:16:03;19.08;;;10.90;;
32501;SDS011;18952;52.516;13.460;2022-10-17T06:18:30;15.07;;;10.60;;
32501;SDS011;18952;52.516;13.460;2022-10-17T06:21:05;12.98;;;11.15;;
32501;SDS011;18952;52.516;13.460;2022-10-17T06:23:36;16.35;;;10.50;;
32501;SDS011;18952;52.516;13.460;2022-10-17T06:26:04;13.63;;;10.20;;
32501;SDS011;18952;52.516;13.460;2022-10-17T06:28:32;12.43;;;9.95;;
32501;SDS011;18952;52.516;13.460;2022-10-17T06:31:03;16.35;;;9.90;;
32501;SDS011;18952;52.516;13.460;2022-10-17T06:33:31;15.38;;;10.35;;
32501;SDS011;18952;52.516;13.460;2022-10-17T06:35:57;16.52;;;9.82;;
32501;SDS011;18952;52.516;13.460;2022-10-17T06:38:25;16.20;;;9.35;;
32501;SDS011;18952;52.516;13.460;2022-10-17T06:40:51;23.90;;;10.52;;
32501;SDS011;18952;52.516;13.460;2022-10-17T06:43:18;47.05;;;12.95;;
32501;SDS011;18952;52.516;13.460;2022-10-17T06:45:53;50.95;;;15.85;;
32501;SDS011;18952;52.516;13.460;2022-10-17T06:48:19;27.10;;;12.95;;
32501;SDS011;18952;52.516;13.460;2022-10-17T06:50:46;24.85;;;10.68;;
32501;SDS011;18952;52.516;13.460;2022-10-17T06:53:13;17.48;;;10.77;;
32501;SDS011;18952;52.516;13.460;2022-10-17T06:55:40;20.80;;;11.05;;
32501;SDS011;18952;52.516;13.460;2022-10-17T06:58:07;19.17;;;10.45;;
32501;SDS011;18952;52.516;13.460;2022-10-17T07:00:35;16.20;;;10.75;;
32501;SDS011;18952;52.516;13.460;2022-10-17T07:03:03;14.32;;;9.93;;
32501;SDS011;18952;52.516;13.460;2022-10-17T07:05:30;16.02;;;10.52;;
32501;SDS011;18952;52.516;13.460;2022-10-17T07:07:57;17.52;;;12.02;;
32501;SDS011;18952;52.516;13.460;2022-10-17T07:10:26;18.95;;;12.10;;
32501;SDS011;18952;52.516;13.460;2022-10-17T07:12:54;35.45;;;11.82;;
32501;SDS011;18952;52.516;13.460;2022-10-17T07:15:24;21.25;;;9.70;;
32501;SDS011;18952;52.516;13.460;2022-10-17T07:17:51;16.05;;;9.07;;
32501;SDS011;18952;52.516;13.460;2022-10-17T07:20:17;19.73;;;11.18;;
32501;SDS011;18952;52.516;13.460;2022-10-17T07:22:44;20.90;;;9.55;;
32501;SDS011;18952;52.516;13.460;2022-10-17T07:25:11;16.70;;;9.73;;
32501;SDS011;18952;52.516;13.460;2022-10-17T07:27:37;20.52;;;10.23;;
32501;SDS011;18952;52.516;13.460;2022-10-17T07:30:04;20.52;;;9.60;;
32501;SDS011;18952;52.516;13.460;2022-10-17T07:32:31;24.10;;;10.38;;
32501;SDS011;18952;52.516;13.460;2022-10-17T07:34:58;17.38;;;8.45;;
32501;SDS011;18952;52.516;13.460;2022-10-17T07:37:25;15.35;;;9.50;;
32501;SDS011;18952;52.516;13.460;2022-10-17T07:39:52;12.55;;;8.55;;
32501;SDS011;18952;52.516;13.460;2022-10-17T07:42:19;15.48;;;8.25;;
32501;SDS011;18952;52.516;13.460;2022-10-17T07:44:46;19.88;;;8.38;;
32501;SDS011;18952;52.516;13.460;2022-10-17T07:47:13;18.27;;;10.88;;
32501;SDS011;18952;52.516;13.460;2022-10-17T07:49:40;17.88;;;8.15;;
32501;SDS011;18952;52.516;13.460;2022-10-17T07:52:11;16.65;;;8.70;;
32501;SDS011;18952;52.516;13.460;2022-10-17T07:54:39;20.00;;;8.30;;
32501;SDS011;18952;52.516;13.460;2022-10-17T07:57:07;17.45;;;7.82;;
32501;SDS011;18952;52.516;13.460;2022-10-17T07:59:34;13.25;;;7.82;;
32501;SDS011;18952;52.516;13.460;2022-10-17T08:02:04;14.77;;;7.95;;
32501;SDS011;18952;52.516;13.460;2022-10-17T08:04:30;11.55;;;7.25;;
32501;SDS011;18952;52.516;13.460;2022-10-17T08:06:58;13.93;;;7.32;;
32501;SDS011;18952;52.516;13.460;2022-10-17T08:09:45;12.60;;;8.65;;
32501;SDS011;18952;52.516;13.460;2022-10-17T08:12:13;16.60;;;6.80;;
32501;SDS011;18952;52.516;13.460;2022-10-17T08:14:40;19.40;;;11.80;;
32501;SDS011;18952;52.516;13.460;2022-10-17T08:17:08;12.20;;;6.43;;
32501;SDS011;18952;52.516;13.460;2022-10-17T08:19:38;11.60;;;7.00;;
32501;SDS011;18952;52.516;13.460;2022-10-17T08:22:06;15.75;;;7.22;;
32501;SDS011;18952;52.516;13.460;2022-10-17T08:24:33;16.35;;;6.20;;
32501;SDS011;18952;52.516;13.460;2022-10-17T08:27:00;10.60;;;5.55;;
32501;SDS011;18952;52.516;13.460;2022-10-17T08:29:27;10.90;;;5.68;;
32501;SDS011;18952;52.516;13.460;2022-10-17T08:31:53;7.82;;;5.40;;
32501;SDS011;18952;52.516;13.460;2022-10-17T08:34:27;10.40;;;5.90;;
32501;SDS011;18952;52.516;13.460;2022-10-17T08:36:54;11.68;;;6.07;;
32501;SDS011;18952;52.516;13.460;2022-10-17T08:39:22;12.70;;;5.55;;
32501;SDS011;18952;52.516;13.460;2022-10-17T08:42:02;9.48;;;6.22;;
32501;SDS011;18952;52.516;13.460;2022-10-17T08:44:57;9.70;;;5.55;;
32501;SDS011;18952;52.516;13.460;2022-10-17T08:47:33;11.57;;;6.38;;
32501;SDS011;18952;52.516;13.460;2022-10-17T08:50:03;15.63;;;6.10;;
32501;SDS011;18952;52.516;13.460;2022-10-17T08:52:37;13.43;;;5.70;;
32501;SDS011;18952;52.516;13.460;2022-10-17T08:55:16;9.80;;;5.25;;
32501;SDS011;18952;52.516;13.460;2022-10-17T08:57:47;13.60;;;5.97;;
32501;SDS011;18952;52.516;13.460;2022-10-17T09:00:16;12.15;;;6.28;;
32501;SDS011;18952;52.516;13.460;2022-10-17T09:02:48;9.55;;;5.63;;
32501;SDS011;18952;52.516;13.460;2022-10-17T09:05:46;8.57;;;5.63;;
32501;SDS011;18952;52.516;13.460;2022-10-17T09:13:42;14.60;;;6.07;;
32501;SDS011;18952;52.516;13.460;2022-10-17T09:19:04;13.88;;;5.25;;
32501;SDS011;18952;52.516;13.460;2022-10-17T09:21:57;12.80;;;5.07;;
32501;SDS011;18952;52.516;13.460;2022-10-17T09:24:30;16.58;;;4.97;;
32501;SDS011;18952;52.516;13.460;2022-10-17T09:27:21;9.25;;;4.70;;
32501;SDS011;18952;52.516;13.460;2022-10-17T09:29:52;9.25;;;4.60;;
32501;SDS011;18952;52.516;13.460;2022-10-17T09:32:23;10.05;;;3.97;;
32501;SDS011;18952;52.516;13.460;2022-10-17T09:34:51;13.02;;;4.88;;
32501;SDS011;18952;52.516;13.460;2022-10-17T09:37:28;10.07;;;5.20;;
32501;SDS011;18952;52.516;13.460;2022-10-17T09:39:57;15.75;;;5.43;;
32501;SDS011;18952;52.516;13.460;2022-10-17T09:42:24;11.40;;;4.95;;
32501;SDS011;18952;52.516;13.460;2022-10-17T09:45:04;14.73;;;6.68;;
32501;SDS011;18952;52.516;13.460;2022-10-17T09:51:00;11.43;;;6.07;;
32501;SDS011;18952;52.516;13.460;2022-10-17T09:53:48;15.68;;;8.32;;
32501;SDS011;18952;52.516;13.460;2022-10-17T09:56:18;12.57;;;6.50;;
32501;SDS011;18952;52.516;13.460;2022-10-17T09:58:47;12.93;;;5.25;;
32501;SDS011;18952;52.516;13.460;2022-10-17T10:01:28;13.30;;;5.30;;
32501;SDS011;18952;52.516;13.460;2022-10-17T10:04:15;13.35;;;5.60;;
32501;SDS011;18952;52.516;13.460;2022-10-17T10:06:59;13.77;;;7.80;;
32501;SDS011;18952;52.516;13.460;2022-10-17T10:09:31;8.85;;;5.45;;
32501;SDS011;18952;52.516;13.460;2022-10-17T10:12:13;9.88;;;5.32;;
32501;SDS011;18952;52.516;13.460;2022-10-17T10:14:46;8.70;;;4.18;;
32501;SDS011;18952;52.516;13.460;2022-10-17T10:20:23;8.90;;;3.83;;
32501;SDS011;18952;52.516;13.460;2022-10-17T10:23:19;7.50;;;4.35;;
32501;SDS011;18952;52.516;13.460;2022-10-17T10:28:22;14.88;;;4.10;;
32501;SDS011;18952;52.516;13.460;2022-10-17T10:30:55;9.00;;;4.30;;
32501;SDS011;18952;52.516;13.460;2022-10-17T10:33:25;10.13;;;4.38;;
32501;SDS011;18952;52.516;13.460;2022-10-17T10:35:58;15.68;;;4.38;;
32501;SDS011;18952;52.516;13.460;2022-10-17T10:38:26;13.80;;;4.55;;
32501;SDS011;18952;52.516;13.460;2022-10-17T10:41:04;13.48;;;4.32;;
32501;SDS011;18952;52.516;13.460;2022-10-17T10:43:34;12.57;;;4.72;;
32501;SDS011;18952;52.516;13.460;2022-10-17T10:46:04;10.68;;;4.43;;
32501;SDS011;18952;52.516;13.460;2022-10-17T10:51:30;8.63;;;3.33;;
32501;SDS011;18952;52.516;13.460;2022-10-17T10:56:58;7.97;;;3.10;;
32501;SDS011;18952;52.516;13.460;2022-10-17T11:01:59;7.03;;;3.50;;
32501;SDS011;18952;52.516;13.460;2022-10-17T11:07:26;4.65;;;3.00;;
32501;SDS011;18952;52.516;13.460;2022-10-17T11:12:47;6.80;;;3.10;;
32501;SDS011;18952;52.516;13.460;2022-10-17T11:15:27;10.05;;;3.50;;
32501;SDS011;18952;52.516;13.460;2022-10-17T11:21:03;12.75;;;4.05;;
32501;SDS011;18952;52.516;13.460;2022-10-17T11:23:51;11.77;;;4.05;;
32501;SDS011;18952;52.516;13.460;2022-10-17T11:26:34;10.73;;;3.97;;
32501;SDS011;18952;52.516;13.460;2022-10-17T11:29:08;8.40;;;3.70;;
32501;SDS011;18952;52.516;13.460;2022-10-17T11:31:40;12.57;;;3.70;;
32501;SDS011;18952;52.516;13.460;2022-10-17T11:34:14;11.35;;;3.42;;
32501;SDS011;18952;52.516;13.460;2022-10-17T11:36:46;9.00;;;3.35;;
32501;SDS011;18952;52.516;13.460;2022-10-17T11:39:18;13.75;;;3.83;;
32501;SDS011;18952;52.516;13.460;2022-10-17T11:42:13;10.88;;;4.10;;
32501;SDS011;18952;52.516;13.460;2022-10-17T11:44:41;9.57;;;4.15;;
32501;SDS011;18952;52.516;13.460;2022-10-17T11:49:44;8.40;;;4.03;;
32501;SDS011;18952;52.516;13.460;2022-10-17T12:16:59;11.88;;;3.55;;
32501;SDS011;18952;52.516;13.460;2022-10-17T12:19:36;11.18;;;3.70;;
32501;SDS011;18952;52.516;13.460;2022-10-17T12:25:15;11.68;;;4.05;;
32501;SDS011;18952;52.516;13.460;2022-10-17T12:30:24;8.68;;;3.83;;
32501;SDS011;18952;52.516;13.460;2022-10-17T12:35:41;6.85;;;3.55;;
32501;SDS011;18952;52.516;13.460;2022-10-17T12:38:21;10.10;;;3.53;;
32501;SDS011;18952;52.516;13.460;2022-10-17T12:40:52;6.60;;;3.53;;
32501;SDS011;18952;52.516;13.460;2022-10-17T12:45:57;6.97;;;3.65;;
32501;SDS011;18952;52.516;13.460;2022-10-17T12:51:20;8.02;;;4.18;;
32501;SDS011;18952;52.516;13.460;2022-10-17T12:54:10;13.75;;;4.00;;
32501;SDS011;18952;52.516;13.460;2022-10-17T12:56:40;9.43;;;4.60;;
32501;SDS011;18952;52.516;13.460;2022-10-17T13:01:43;9.75;;;4.22;;
32501;SDS011;18952;52.516;13.460;2022-10-17T13:04:16;9.38;;;4.40;;
32501;SDS011;18952;52.516;13.460;2022-10-17T13:07:03;10.00;;;3.53;;
32501;SDS011;18952;52.516;13.460;2022-10-17T13:09:30;10.10;;;4.38;;
32501;SDS011;18952;52.516;13.460;2022-10-17T13:12:03;10.27;;;4.05;;
32501;SDS011;18952;52.516;13.460;2022-10-17T13:14:36;9.48;;;4.00;;
32501;SDS011;18952;52.516;13.460;2022-10-17T13:17:06;8.75;;;3.60;;
32501;SDS011;18952;52.516;13.460;2022-10-17T13:19:45;10.07;;;3.80;;
32501;SDS011;18952;52.516;13.460;2022-10-17T13:22:16;6.03;;;3.50;;
32501;SDS011;18952;52.516;13.460;2022-10-17T13:24:45;8.55;;;3.60;;
32501;SDS011;18952;52.516;13.460;2022-10-17T13:27:32;14.38;;;3.75;;
32501;SDS011;18952;52.516;13.460;2022-10-17T13:30:16;13.73;;;3.97;;
32501;SDS011;18952;52.516;13.460;2022-10-17T13:32:45;8.13;;;3.38;;
32501;SDS011;18952;52.516;13.460;2022-10-17T13:35:13;6.45;;;3.35;;
32501;SDS011;18952;52.516;13.460;2022-10-17T13:37:43;8.35;;;3.35;;
32501;SDS011;18952;52.516;13.460;2022-10-17T13:40:22;9.75;;;3.72;;
32501;SDS011;18952;52.516;13.460;2022-10-17T13:43:15;9.15;;;4.75;;
32501;SDS011;18952;52.516;13.460;2022-10-17T13:45:59;16.10;;;3.80;;
32501;SDS011;18952;52.516;13.460;2022-10-17T13:48:47;10.45;;;3.40;;
32501;SDS011;18952;52.516;13.460;2022-10-17T13:51:14;10.52;;;3.67;;
32501;SDS011;18952;52.516;13.460;2022-10-17T13:53:41;9.35;;;3.78;;
32501;SDS011;18952;52.516;13.460;2022-10-17T13:56:21;9.95;;;3.72;;
32501;SDS011;18952;52.516;13.460;2022-10-17T13:58:56;10.13;;;3.20;;
32501;SDS011;18952;52.516;13.460;2022-10-17T14:01:27;8.68;;;3.80;;
32501;SDS011;18952;52.516;13.460;2022-10-17T14:03:55;10.07;;;3.40;;
32501;SDS011;18952;52.516;13.460;2022-10-17T14:06:41;11.27;;;3.40;;
32501;SDS011;18952;52.516;13.460;2022-10-17T14:09:28;8.48;;;2.92;;
32501;SDS011;18952;52.516;13.460;2022-10-17T14:12:08;5.25;;;3.03;;
32501;SDS011;18952;52.516;13.460;2022-10-17T14:14:37;16.92;;;3.45;;
32501;SDS011;18952;52.516;13.460;2022-10-17T14:17:26;6.90;;;3.60;;
32501;SDS011;18952;52.516;13.460;2022-10-17T14:19:56;11.27;;;3.40;;
32501;SDS011;18952;52.516;13.460;2022-10-17T14:22:48;9.65;;;2.90;;
32501;SDS011;18952;52.516;13.460;2022-10-17T14:25:39;6.38;;;2.60;;
32501;SDS011;18952;52.516;13.460;2022-10-17T14:30:38;11.85;;;2.90;;
32501;SDS011;18952;52.516;13.460;2022-10-17T14:33:23;8.90;;;3.30;;
32501;SDS011;18952;52.516;13.460;2022-10-17T14:35:55;12.23;;;4.38;;
32501;SDS011;18952;52.516;13.460;2022-10-17T14:38:24;13.32;;;3.47;;
32501;SDS011;18952;52.516;13.460;2022-10-17T14:40:57;6.38;;;3.08;;
32501;SDS011;18952;52.516;13.460;2022-10-17T14:44:03;11.13;;;2.83;;
32501;SDS011;18952;52.516;13.460;2022-10-17T14:46:33;6.03;;;2.92;;
32501;SDS011;18952;52.516;13.460;2022-10-17T14:49:03;10.02;;;2.97;;
32501;SDS011;18952;52.516;13.460;2022-10-17T14:51:32;9.52;;;3.60;;
32501;SDS011;18952;52.516;13.460;2022-10-17T14:54:21;10.85;;;3.72;;
32501;SDS011;18952;52.516;13.460;2022-10-17T14:56:52;12.25;;;3.92;;
32501;SDS011;18952;52.516;13.460;2022-10-17T14:59:19;12.48;;;3.83;;
32501;SDS011;18952;52.516;13.460;2022-10-17T15:02:05;11.85;;;4.38;;
32501;SDS011;18952;52.516;13.460;2022-10-17T15:04:33;10.52;;;3.90;;
32501;SDS011;18952;52.516;13.460;2022-10-17T15:07:00;15.13;;;4.68;;
32501;SDS011;18952;52.516;13.460;2022-10-17T15:09:26;13.50;;;4.50;;
32501;SDS011;18952;52.516;13.460;2022-10-17T15:12:00;15.07;;;6.07;;
32501;SDS011;18952;52.516;13.460;2022-10-17T15:14:28;13.45;;;4.30;;
32501;SDS011;18952;52.516;13.460;2022-10-17T15:16:55;11.93;;;4.90;;
32501;SDS011;18952;52.516;13.460;2022-10-17T15:19:22;8.85;;;4.25;;
32501;SDS011;18952;52.516;13.460;2022-10-17T15:21:49;10.98;;;4.45;;
32501;SDS011;18952;52.516;13.460;2022-10-17T15:24:17;10.10;;;4.60;;
32501;SDS011;18952;52.516;13.460;2022-10-17T15:26:45;15.63;;;5.40;;
32501;SDS011;18952;52.516;13.460;2022-10-17T15:29:14;14.02;;;5.22;;
32501;SDS011;18952;52.516;13.460;2022-10-17T15:31:42;11.77;;;5.28;;
32501;SDS011;18952;52.516;13.460;2022-10-17T15:34:12;14.85;;;7.10;;
32501;SDS011;18952;52.516;13.460;2022-10-17T15:36:39;8.38;;;4.97;;
32501;SDS011;18952;52.516;13.460;2022-10-17T15:39:13;11.48;;;5.50;;
32501;SDS011;18952;52.516;13.460;2022-10-17T15:41:40;8.77;;;5.13;;
32501;SDS011;18952;52.516;13.460;2022-10-17T15:44:06;14.85;;;5.57;;
32501;SDS011;18952;52.516;13.460;2022-10-17T15:46:33;13.52;;;4.90;;
32501;SDS011;18952;52.516;13.460;2022-10-17T15:49:01;9.80;;;4.47;;
32501;SDS011;18952;52.516;13.460;2022-10-17T15:51:33;10.98;;;4.90;;
32501;SDS011;18952;52.516;13.460;2022-10-17T15:53:59;11.20;;;4.97;;
32501;SDS011;18952;52.516;13.460;2022-10-17T15:56:30;13.18;;;5.57;;
32501;SDS011;18952;52.516;13.460;2022-10-17T15:58:59;6.32;;;3.97;;
32501;SDS011;18952;52.516;13.460;2022-10-17T16:01:37;12.05;;;5.22;;
32501;SDS011;18952;52.516;13.460;2022-10-17T16:04:04;10.90;;;5.45;;
32501;SDS011;18952;52.516;13.460;2022-10-17T16:06:31;8.25;;;5.28;;
32501;SDS011;18952;52.516;13.460;2022-10-17T16:08:58;17.48;;;6.03;;
32501;SDS011;18952;52.516;13.460;2022-10-17T16:11:32;9.70;;;7.15;;
32501;SDS011;18952;52.516;13.460;2022-10-17T16:14:03;12.85;;;5.75;;
32501;SDS011;18952;52.516;13.460;2022-10-17T16:16:40;13.38;;;5.07;;
32501;SDS011;18952;52.516;13.460;2022-10-17T16:19:07;16.30;;;7.82;;
32501;SDS011;18952;52.516;13.460;2022-10-17T16:21:34;11.32;;;6.25;;
32501;SDS011;18952;52.516;13.460;2022-10-17T16:24:03;13.10;;;5.82;;
32501;SDS011;18952;52.516;13.460;2022-10-17T16:26:30;19.95;;;6.55;;
32501;SDS011;18952;52.516;13.460;2022-10-17T16:28:57;12.27;;;6.22;;
32501;SDS011;18952;52.516;13.460;2022-10-17T16:31:26;16.10;;;6.68;;
32501;SDS011;18952;52.516;13.460;2022-10-17T16:33:58;9.88;;;6.63;;
32501;SDS011;18952;52.516;13.460;2022-10-17T16:36:27;17.13;;;7.78;;
32501;SDS011;18952;52.516;13.460;2022-10-17T16:38:54;16.10;;;7.63;;
32501;SDS011;18952;52.516;13.460;2022-10-17T16:41:28;18.10;;;9.90;;
32501;SDS011;18952;52.516;13.460;2022-10-17T16:44:03;17.63;;;6.20;;
32501;SDS011;18952;52.516;13.460;2022-10-17T16:46:35;13.57;;;6.53;;